sensor_id;sensor_type;location;lat;lon;timestamp;temperature;humidity
3564;DHT22;1796;52.388;13.096;2023-06-14T00:02:23;13.00;99.90
3564;DHT22;1796;52.388;13.096;2023-06-14T00:04:50;12.90;99.90
3564;DHT22;1796;52.388;13.096;2023-06-14T00:07:22;12.90;99.90
3564;DHT22;1796;52.388;13.096;2023-06-14T00:09:59;12.80;99.90
3564;DHT22;1796;52.388;13.096;2023-06-14T00:12:26;12.80;99.90
3564;DHT22;1796;52.388;13.096;2023-06-14T00:14:53;12.80;99.90
3564;DHT22;1796;52.388;13.096;2023-06-14T00:17:20;12.90;99.90
3564;DHT22;1796;52.388;13.096;2023-06-14T00:19:47;13.00;99.90
3564;DHT22;1796;52.388;13.096;2023-06-14T00:22:15;13.00;99.90
3564;DHT22;1796;52.388;13.096;2023-06-14T00:24:43;13.10;99.90
3564;DHT22;1796;52.388;13.096;2023-06-14T00:27:10;13.00;99.90
3564;DHT22;1796;52.388;13.096;2023-06-14T00:29:37;13.00;99.90
3564;DHT22;1796;52.388;13.096;2023-06-14T00:32:04;13.00;99.90
3564;DHT22;1796;52.388;13.096;2023-06-14T00:34:31;13.00;99.90
3564;DHT22;1796;52.388;13.096;2023-06-14T00:36:58;12.90;99.90
3564;DHT22;1796;52.388;13.096;2023-06-14T00:39:25;12.90;99.90
3564;DHT22;1796;52.388;13.096;2023-06-14T00:41:53;12.80;99.90
3564;DHT22;1796;52.388;13.096;2023-06-14T00:44:20;12.80;99.90
3564;DHT22;1796;52.388;13.096;2023-06-14T00:46:48;12.80;99.90
3564;DHT22;1796;52.388;13.096;2023-06-14T00:49:16;12.80;99.90
3564;DHT22;1796;52.388;13.096;2023-06-14T00:51:44;12.80;99.90
3564;DHT22;1796;52.388;13.096;2023-06-14T00:54:11;12.70;99.90
3564;DHT22;1796;52.388;13.096;2023-06-14T00:56:39;12.70;99.90
3564;DHT22;1796;52.388;13.096;2023-06-14T00:59:07;12.60;99.90
3564;DHT22;1796;52.388;13.096;2023-06-14T01:01:34;12.60;99.90
3564;DHT22;1796;52.388;13.096;2023-06-14T01:04:01;12.50;99.90
3564;DHT22;1796;52.388;13.096;2023-06-14T01:06:33;12.50;99.90
3564;DHT22;1796;52.388;13.096;2023-06-14T01:09:07;12.60;99.90
3564;DHT22;1796;52.388;13.096;2023-06-14T01:11:44;12.60;99.90
3564;DHT22;1796;52.388;13.096;2023-06-14T01:14:16;12.50;99.90
3564;DHT22;1796;52.388;13.096;2023-06-14T01:16:44;12.60;99.90
3564;DHT22;1796;52.388;13.096;2023-06-14T01:19:13;12.60;99.90
3564;DHT22;1796;52.388;13.096;2023-06-14T01:21:41;12.70;99.90
3564;DHT22;1796;52.388;13.096;2023-06-14T01:24:09;12.70;99.90
3564;DHT22;1796;52.388;13.096;2023-06-14T01:26:38;12.70;99.90
3564;DHT22;1796;52.388;13.096;2023-06-14T01:29:11;12.70;99.90
3564;DHT22;1796;52.388;13.096;2023-06-14T01:31:43;12.60;99.90
3564;DHT22;1796;52.388;13.096;2023-06-14T01:34:11;12.60;99.90
3564;DHT22;1796;52.388;13.096;2023-06-14T01:36:41;12.60;99.90
3564;DHT22;1796;52.388;13.096;2023-06-14T01:39:10;12.50;99.90
3564;DHT22;1796;52.388;13.096;2023-06-14T01:41:39;12.50;99.90
3564;DHT22;1796;52.388;13.096;2023-06-14T01:44:06;12.60;99.90
3564;DHT22;1796;52.388;13.096;2023-06-14T01:46:34;12.60;99.90
3564;DHT22;1796;52.388;13.096;2023-06-14T01:49:01;12.60;99.90
3564;DHT22;1796;52.388;13.096;2023-06-14T01:51:28;12.50;99.90
3564;DHT22;1796;52.388;13.096;2023-06-14T01:53:55;12.50;99.90
3564;DHT22;1796;52.388;13.096;2023-06-14T01:56:24;12.40;99.90
3564;DHT22;1796;52.388;13.096;2023-06-14T01:58:52;12.40;99.90
3564;DHT22;1796;52.388;13.096;2023-06-14T02:01:19;12.30;99.90
3564;DHT22;1796;52.388;13.096;2023-06-14T02:03:47;12.30;99.90
3564;DHT22;1796;52.388;13.096;2023-06-14T02:06:14;12.30;99.90
3564;DHT22;1796;52.388;13.096;2023-06-14T02:08:42;12.30;99.90
3564;DHT22;1796;52.388;13.096;2023-06-14T02:11:09;12.20;99.90
3564;DHT22;1796;52.388;13.096;2023-06-14T02:13:37;12.20;99.90
3564;DHT22;1796;52.388;13.096;2023-06-14T02:16:04;12.20;99.90
3564;DHT22;1796;52.388;13.096;2023-06-14T02:18:31;12.10;99.90
3564;DHT22;1796;52.388;13.096;2023-06-14T02:20:58;12.20;99.90
3564;DHT22;1796;52.388;13.096;2023-06-14T02:23:24;12.10;99.90
3564;DHT22;1796;52.388;13.096;2023-06-14T02:25:51;12.10;99.90
3564;DHT22;1796;52.388;13.096;2023-06-14T02:28:18;12.10;99.90
3564;DHT22;1796;52.388;13.096;2023-06-14T02:30:47;12.10;99.90
3564;DHT22;1796;52.388;13.096;2023-06-14T02:33:14;12.10;99.90
3564;DHT22;1796;52.388;13.096;2023-06-14T02:35:41;12.00;99.90
3564;DHT22;1796;52.388;13.096;2023-06-14T02:38:08;12.00;99.90
3564;DHT22;1796;52.388;13.096;2023-06-14T02:40:35;12.00;99.90
3564;DHT22;1796;52.388;13.096;2023-06-14T02:43:02;12.00;99.90
3564;DHT22;1796;52.388;13.096;2023-06-14T02:45:29;12.00;99.90
3564;DHT22;1796;52.388;13.096;2023-06-14T02:47:57;12.00;99.90
3564;DHT22;1796;52.388;13.096;2023-06-14T02:50:24;11.90;99.90
3564;DHT22;1796;52.388;13.096;2023-06-14T02:52:51;11.90;99.90
3564;DHT22;1796;52.388;13.096;2023-06-14T02:55:21;11.90;99.90
3564;DHT22;1796;52.388;13.096;2023-06-14T02:57:48;12.00;99.90
3564;DHT22;1796;52.388;13.096;2023-06-14T03:00:15;12.00;99.90
3564;DHT22;1796;52.388;13.096;2023-06-14T03:02:42;12.00;99.90
3564;DHT22;1796;52.388;13.096;2023-06-14T03:05:13;12.00;99.90
3564;DHT22;1796;52.388;13.096;2023-06-14T03:07:39;12.00;99.90
3564;DHT22;1796;52.388;13.096;2023-06-14T03:10:10;12.00;99.90
3564;DHT22;1796;52.388;13.096;2023-06-14T03:12:38;12.00;99.90
3564;DHT22;1796;52.388;13.096;2023-06-14T03:15:06;12.10;99.90
3564;DHT22;1796;52.388;13.096;2023-06-14T03:17:33;12.10;99.90
3564;DHT22;1796;52.388;13.096;2023-06-14T03:20:00;12.10;99.90
3564;DHT22;1796;52.388;13.096;2023-06-14T03:22:29;12.10;99.90
3564;DHT22;1796;52.388;13.096;2023-06-14T03:24:56;12.10;99.90
3564;DHT22;1796;52.388;13.096;2023-06-14T03:27:24;12.10;99.90
3564;DHT22;1796;52.388;13.096;2023-06-14T03:29:54;12.20;99.90
3564;DHT22;1796;52.388;13.096;2023-06-14T03:32:21;12.20;99.90
3564;DHT22;1796;52.388;13.096;2023-06-14T03:34:47;12.40;99.90
3564;DHT22;1796;52.388;13.096;2023-06-14T03:37:16;12.80;99.90
3564;DHT22;1796;52.388;13.096;2023-06-14T03:39:44;13.40;99.90
3564;DHT22;1796;52.388;13.096;2023-06-14T03:42:13;13.70;99.90
3564;DHT22;1796;52.388;13.096;2023-06-14T03:44:40;14.10;99.90
3564;DHT22;1796;52.388;13.096;2023-06-14T03:47:07;14.40;99.90
3564;DHT22;1796;52.388;13.096;2023-06-14T03:49:34;14.80;99.90
3564;DHT22;1796;52.388;13.096;2023-06-14T03:52:02;15.20;99.90
3564;DHT22;1796;52.388;13.096;2023-06-14T03:54:29;15.30;99.90
3564;DHT22;1796;52.388;13.096;2023-06-14T03:56:59;15.80;99.90
3564;DHT22;1796;52.388;13.096;2023-06-14T03:59:26;16.00;99.90
3564;DHT22;1796;52.388;13.096;2023-06-14T04:01:54;16.40;99.90
3564;DHT22;1796;52.388;13.096;2023-06-14T04:04:21;16.10;99.90
3564;DHT22;1796;52.388;13.096;2023-06-14T04:06:55;16.10;99.90
3564;DHT22;1796;52.388;13.096;2023-06-14T04:09:22;16.50;99.90
3564;DHT22;1796;52.388;13.096;2023-06-14T04:11:50;16.90;99.90
3564;DHT22;1796;52.388;13.096;2023-06-14T04:14:19;16.70;99.90
3564;DHT22;1796;52.388;13.096;2023-06-14T04:16:46;17.20;99.90
3564;DHT22;1796;52.388;13.096;2023-06-14T04:19:13;17.40;99.90
3564;DHT22;1796;52.388;13.096;2023-06-14T04:21:40;17.70;99.90
3564;DHT22;1796;52.388;13.096;2023-06-14T04:24:08;17.30;99.90
3564;DHT22;1796;52.388;13.096;2023-06-14T04:26:38;17.40;99.90
3564;DHT22;1796;52.388;13.096;2023-06-14T04:29:05;17.60;99.90
3564;DHT22;1796;52.388;13.096;2023-06-14T04:31:34;17.50;99.90
3564;DHT22;1796;52.388;13.096;2023-06-14T04:34:03;17.60;99.90
3564;DHT22;1796;52.388;13.096;2023-06-14T04:36:31;17.50;99.90
3564;DHT22;1796;52.388;13.096;2023-06-14T04:39:00;17.70;99.90
3564;DHT22;1796;52.388;13.096;2023-06-14T04:41:28;18.20;99.90
3564;DHT22;1796;52.388;13.096;2023-06-14T04:43:56;17.80;99.90
3564;DHT22;1796;52.388;13.096;2023-06-14T04:46:24;18.30;99.90
3564;DHT22;1796;52.388;13.096;2023-06-14T04:48:52;18.20;99.90
3564;DHT22;1796;52.388;13.096;2023-06-14T04:51:20;18.10;99.90
3564;DHT22;1796;52.388;13.096;2023-06-14T04:53:55;18.00;99.90
3564;DHT22;1796;52.388;13.096;2023-06-14T04:56:22;18.50;99.90
3564;DHT22;1796;52.388;13.096;2023-06-14T04:58:50;18.30;99.90
3564;DHT22;1796;52.388;13.096;2023-06-14T05:01:18;18.50;99.90
3564;DHT22;1796;52.388;13.096;2023-06-14T05:03:45;18.80;99.90
3564;DHT22;1796;52.388;13.096;2023-06-14T05:06:15;19.00;99.90
3564;DHT22;1796;52.388;13.096;2023-06-14T05:08:42;19.00;99.90
3564;DHT22;1796;52.388;13.096;2023-06-14T05:11:09;18.60;99.90
3564;DHT22;1796;52.388;13.096;2023-06-14T05:13:36;18.70;99.90
3564;DHT22;1796;52.388;13.096;2023-06-14T05:16:03;18.90;99.90
3564;DHT22;1796;52.388;13.096;2023-06-14T05:18:30;19.50;99.90
3564;DHT22;1796;52.388;13.096;2023-06-14T05:20:59;19.00;99.90
3564;DHT22;1796;52.388;13.096;2023-06-14T05:23:28;18.70;99.90
3564;DHT22;1796;52.388;13.096;2023-06-14T05:25:54;18.90;99.90
3564;DHT22;1796;52.388;13.096;2023-06-14T05:28:22;18.70;99.90
3564;DHT22;1796;52.388;13.096;2023-06-14T05:30:49;18.90;99.90
3564;DHT22;1796;52.388;13.096;2023-06-14T05:33:16;19.00;99.90
3564;DHT22;1796;52.388;13.096;2023-06-14T05:35:43;19.40;99.90
3564;DHT22;1796;52.388;13.096;2023-06-14T05:38:10;19.10;99.90
3564;DHT22;1796;52.388;13.096;2023-06-14T05:40:38;18.20;99.90
3564;DHT22;1796;52.388;13.096;2023-06-14T05:43:05;18.10;99.90
3564;DHT22;1796;52.388;13.096;2023-06-14T05:45:32;17.60;99.90
3564;DHT22;1796;52.388;13.096;2023-06-14T05:47:59;17.80;99.90
3564;DHT22;1796;52.388;13.096;2023-06-14T05:50:26;18.00;99.90
3564;DHT22;1796;52.388;13.096;2023-06-14T05:52:53;18.20;99.90
3564;DHT22;1796;52.388;13.096;2023-06-14T05:55:20;18.00;99.90
3564;DHT22;1796;52.388;13.096;2023-06-14T05:57:48;18.20;99.90
3564;DHT22;1796;52.388;13.096;2023-06-14T06:00:16;18.40;99.90
3564;DHT22;1796;52.388;13.096;2023-06-14T06:02:44;17.90;99.90
3564;DHT22;1796;52.388;13.096;2023-06-14T06:05:11;17.90;99.90
3564;DHT22;1796;52.388;13.096;2023-06-14T06:07:38;17.70;99.90
3564;DHT22;1796;52.388;13.096;2023-06-14T06:10:06;17.60;99.90
3564;DHT22;1796;52.388;13.096;2023-06-14T06:12:33;17.60;99.90
3564;DHT22;1796;52.388;13.096;2023-06-14T06:15:01;17.90;99.90
3564;DHT22;1796;52.388;13.096;2023-06-14T06:17:29;18.20;99.90
3564;DHT22;1796;52.388;13.096;2023-06-14T06:19:56;18.70;99.90
3564;DHT22;1796;52.388;13.096;2023-06-14T06:22:23;18.70;99.90
3564;DHT22;1796;52.388;13.096;2023-06-14T06:24:50;18.70;99.90
3564;DHT22;1796;52.388;13.096;2023-06-14T06:27:17;18.30;99.90
3564;DHT22;1796;52.388;13.096;2023-06-14T06:29:44;17.80;99.90
3564;DHT22;1796;52.388;13.096;2023-06-14T06:32:12;17.70;99.90
3564;DHT22;1796;52.388;13.096;2023-06-14T06:34:39;18.10;99.90
3564;DHT22;1796;52.388;13.096;2023-06-14T06:37:06;18.40;99.90
3564;DHT22;1796;52.388;13.096;2023-06-14T06:39:33;18.30;99.90
3564;DHT22;1796;52.388;13.096;2023-06-14T06:42:00;18.30;99.90
3564;DHT22;1796;52.388;13.096;2023-06-14T06:44:27;18.10;99.90
3564;DHT22;1796;52.388;13.096;2023-06-14T06:46:54;18.10;99.90
3564;DHT22;1796;52.388;13.096;2023-06-14T06:49:22;17.80;99.90
3564;DHT22;1796;52.388;13.096;2023-06-14T06:52:00;17.90;99.90
3564;DHT22;1796;52.388;13.096;2023-06-14T06:54:27;18.00;99.90
3564;DHT22;1796;52.388;13.096;2023-06-14T06:56:54;18.30;99.90
3564;DHT22;1796;52.388;13.096;2023-06-14T06:59:21;18.20;99.90
3564;DHT22;1796;52.388;13.096;2023-06-14T07:01:48;18.20;99.90
3564;DHT22;1796;52.388;13.096;2023-06-14T07:04:15;17.80;99.90
3564;DHT22;1796;52.388;13.096;2023-06-14T07:06:44;17.90;99.90
3564;DHT22;1796;52.388;13.096;2023-06-14T07:09:11;18.10;99.90
3564;DHT22;1796;52.388;13.096;2023-06-14T07:11:40;17.90;99.90
3564;DHT22;1796;52.388;13.096;2023-06-14T07:14:07;17.80;99.90
3564;DHT22;1796;52.388;13.096;2023-06-14T07:16:34;18.10;99.90
3564;DHT22;1796;52.388;13.096;2023-06-14T07:19:01;18.40;99.90
3564;DHT22;1796;52.388;13.096;2023-06-14T07:21:28;18.20;99.90
3564;DHT22;1796;52.388;13.096;2023-06-14T07:23:57;18.50;99.90
3564;DHT22;1796;52.388;13.096;2023-06-14T07:26:23;18.60;99.90
3564;DHT22;1796;52.388;13.096;2023-06-14T07:28:51;18.70;99.90
3564;DHT22;1796;52.388;13.096;2023-06-14T07:31:18;19.00;99.90
3564;DHT22;1796;52.388;13.096;2023-06-14T07:33:45;19.40;99.90
3564;DHT22;1796;52.388;13.096;2023-06-14T07:36:12;19.70;99.90
3564;DHT22;1796;52.388;13.096;2023-06-14T07:38:39;19.30;99.90
3564;DHT22;1796;52.388;13.096;2023-06-14T07:41:07;19.00;99.90
3564;DHT22;1796;52.388;13.096;2023-06-14T07:43:34;19.50;99.90
3564;DHT22;1796;52.388;13.096;2023-06-14T07:46:01;19.90;99.90
3564;DHT22;1796;52.388;13.096;2023-06-14T07:48:28;19.60;99.90
3564;DHT22;1796;52.388;13.096;2023-06-14T07:50:55;19.90;99.90
3564;DHT22;1796;52.388;13.096;2023-06-14T07:53:22;21.50;99.90
3564;DHT22;1796;52.388;13.096;2023-06-14T07:55:49;21.40;99.90
3564;DHT22;1796;52.388;13.096;2023-06-14T07:58:17;21.30;99.90
3564;DHT22;1796;52.388;13.096;2023-06-14T08:00:44;20.60;99.90
3564;DHT22;1796;52.388;13.096;2023-06-14T08:03:11;20.30;99.90
3564;DHT22;1796;52.388;13.096;2023-06-14T08:05:38;19.80;99.90
3564;DHT22;1796;52.388;13.096;2023-06-14T08:08:05;19.70;99.90
3564;DHT22;1796;52.388;13.096;2023-06-14T08:10:32;19.40;99.90
3564;DHT22;1796;52.388;13.096;2023-06-14T08:12:59;19.70;99.90
3564;DHT22;1796;52.388;13.096;2023-06-14T08:15:27;20.00;99.90
3564;DHT22;1796;52.388;13.096;2023-06-14T08:17:54;20.10;99.90
3564;DHT22;1796;52.388;13.096;2023-06-14T08:20:21;19.90;99.90
3564;DHT22;1796;52.388;13.096;2023-06-14T08:22:49;20.10;99.90
3564;DHT22;1796;52.388;13.096;2023-06-14T08:25:20;20.20;99.90
3564;DHT22;1796;52.388;13.096;2023-06-14T08:27:47;20.30;99.90
3564;DHT22;1796;52.388;13.096;2023-06-14T08:30:15;20.70;99.90
3564;DHT22;1796;52.388;13.096;2023-06-14T08:32:44;20.80;99.90
3564;DHT22;1796;52.388;13.096;2023-06-14T08:35:11;20.60;99.90
3564;DHT22;1796;52.388;13.096;2023-06-14T08:37:38;20.70;99.90
3564;DHT22;1796;52.388;13.096;2023-06-14T08:40:18;20.30;99.90
3564;DHT22;1796;52.388;13.096;2023-06-14T08:42:47;20.50;99.90
3564;DHT22;1796;52.388;13.096;2023-06-14T08:45:15;20.40;99.90
3564;DHT22;1796;52.388;13.096;2023-06-14T08:47:44;20.30;99.90
3564;DHT22;1796;52.388;13.096;2023-06-14T08:50:11;20.40;99.90
3564;DHT22;1796;52.388;13.096;2023-06-14T08:52:41;20.60;99.90
3564;DHT22;1796;52.388;13.096;2023-06-14T08:55:16;20.80;99.90
3564;DHT22;1796;52.388;13.096;2023-06-14T08:57:46;20.30;99.90
3564;DHT22;1796;52.388;13.096;2023-06-14T09:00:14;20.90;99.90
3564;DHT22;1796;52.388;13.096;2023-06-14T09:02:41;20.90;99.90
3564;DHT22;1796;52.388;13.096;2023-06-14T09:05:10;20.90;99.90
3564;DHT22;1796;52.388;13.096;2023-06-14T09:07:39;20.40;99.90
3564;DHT22;1796;52.388;13.096;2023-06-14T09:10:08;20.30;99.90
3564;DHT22;1796;52.388;13.096;2023-06-14T09:12:36;20.50;99.90
3564;DHT22;1796;52.388;13.096;2023-06-14T09:15:04;20.60;99.90
3564;DHT22;1796;52.388;13.096;2023-06-14T09:17:34;20.90;99.90
3564;DHT22;1796;52.388;13.096;2023-06-14T09:20:01;21.30;99.90
3564;DHT22;1796;52.388;13.096;2023-06-14T09:22:33;21.30;99.90
3564;DHT22;1796;52.388;13.096;2023-06-14T09:25:00;21.60;99.90
3564;DHT22;1796;52.388;13.096;2023-06-14T09:27:27;21.30;99.90
3564;DHT22;1796;52.388;13.096;2023-06-14T09:29:53;21.10;99.90
3564;DHT22;1796;52.388;13.096;2023-06-14T09:32:21;21.70;99.90
3564;DHT22;1796;52.388;13.096;2023-06-14T09:34:48;22.20;99.90
3564;DHT22;1796;52.388;13.096;2023-06-14T09:37:27;22.20;99.90
3564;DHT22;1796;52.388;13.096;2023-06-14T09:39:56;22.60;99.90
3564;DHT22;1796;52.388;13.096;2023-06-14T09:42:23;22.10;99.90
3564;DHT22;1796;52.388;13.096;2023-06-14T09:44:52;22.70;99.90
3564;DHT22;1796;52.388;13.096;2023-06-14T09:47:19;22.90;99.90
3564;DHT22;1796;52.388;13.096;2023-06-14T09:49:46;22.90;99.90
3564;DHT22;1796;52.388;13.096;2023-06-14T09:52:15;22.50;99.90
3564;DHT22;1796;52.388;13.096;2023-06-14T09:54:44;22.40;99.90
3564;DHT22;1796;52.388;13.096;2023-06-14T09:57:15;22.00;99.90
3564;DHT22;1796;52.388;13.096;2023-06-14T09:59:43;21.70;99.90
3564;DHT22;1796;52.388;13.096;2023-06-14T10:02:14;21.60;99.90
3564;DHT22;1796;52.388;13.096;2023-06-14T10:04:52;21.90;99.90
3564;DHT22;1796;52.388;13.096;2023-06-14T10:07:20;22.20;99.90
3564;DHT22;1796;52.388;13.096;2023-06-14T10:09:49;22.10;99.90
3564;DHT22;1796;52.388;13.096;2023-06-14T10:12:18;22.90;99.90
3564;DHT22;1796;52.388;13.096;2023-06-14T10:14:49;23.50;99.90
3564;DHT22;1796;52.388;13.096;2023-06-14T10:17:24;23.50;98.80
3564;DHT22;1796;52.388;13.096;2023-06-14T10:19:58;22.90;98.70
3564;DHT22;1796;52.388;13.096;2023-06-14T10:22:33;22.40;98.80
3564;DHT22;1796;52.388;13.096;2023-06-14T10:25:03;21.90;99.60
3564;DHT22;1796;52.388;13.096;2023-06-14T10:27:38;22.50;99.20
3564;DHT22;1796;52.388;13.096;2023-06-14T10:30:08;22.50;98.80
3564;DHT22;1796;52.388;13.096;2023-06-14T10:32:35;22.60;98.90
3564;DHT22;1796;52.388;13.096;2023-06-14T10:35:22;22.60;98.50
3564;DHT22;1796;52.388;13.096;2023-06-14T10:37:49;22.30;98.60
3564;DHT22;1796;52.388;13.096;2023-06-14T10:40:30;22.20;98.40
3564;DHT22;1796;52.388;13.096;2023-06-14T10:42:58;22.60;98.20
3564;DHT22;1796;52.388;13.096;2023-06-14T10:45:25;22.80;97.50
3564;DHT22;1796;52.388;13.096;2023-06-14T10:47:52;22.30;97.40
3564;DHT22;1796;52.388;13.096;2023-06-14T10:50:27;22.40;97.30
3564;DHT22;1796;52.388;13.096;2023-06-14T10:52:55;22.70;97.20
3564;DHT22;1796;52.388;13.096;2023-06-14T10:55:22;22.90;97.00
3564;DHT22;1796;52.388;13.096;2023-06-14T10:57:51;23.00;96.40
3564;DHT22;1796;52.388;13.096;2023-06-14T11:00:23;22.90;96.90
3564;DHT22;1796;52.388;13.096;2023-06-14T11:03:04;22.70;96.80
3564;DHT22;1796;52.388;13.096;2023-06-14T11:05:49;22.20;96.80
3564;DHT22;1796;52.388;13.096;2023-06-14T11:11:31;22.90;96.50
3564;DHT22;1796;52.388;13.096;2023-06-14T11:14:00;22.50;96.40
3564;DHT22;1796;52.388;13.096;2023-06-14T11:16:28;22.60;96.80
3564;DHT22;1796;52.388;13.096;2023-06-14T11:18:57;22.80;97.30
3564;DHT22;1796;52.388;13.096;2023-06-14T11:21:24;23.40;96.60
3564;DHT22;1796;52.388;13.096;2023-06-14T11:23:56;23.20;95.60
3564;DHT22;1796;52.388;13.096;2023-06-14T11:26:27;23.30;95.30
3564;DHT22;1796;52.388;13.096;2023-06-14T11:28:57;23.30;95.20
3564;DHT22;1796;52.388;13.096;2023-06-14T11:31:25;23.10;95.60
3564;DHT22;1796;52.388;13.096;2023-06-14T11:33:55;23.20;94.90
3564;DHT22;1796;52.388;13.096;2023-06-14T11:36:22;23.40;94.80
3564;DHT22;1796;52.388;13.096;2023-06-14T11:38:49;22.90;94.60
3564;DHT22;1796;52.388;13.096;2023-06-14T11:41:16;22.70;95.00
3564;DHT22;1796;52.388;13.096;2023-06-14T11:43:43;22.90;94.90
3564;DHT22;1796;52.388;13.096;2023-06-14T11:46:13;23.10;95.00
3564;DHT22;1796;52.388;13.096;2023-06-14T11:48:42;23.10;95.20
3564;DHT22;1796;52.388;13.096;2023-06-14T11:51:12;23.00;94.80
3564;DHT22;1796;52.388;13.096;2023-06-14T11:53:39;22.90;95.10
3564;DHT22;1796;52.388;13.096;2023-06-14T11:56:06;22.90;94.50
3564;DHT22;1796;52.388;13.096;2023-06-14T11:58:33;22.90;94.50
3564;DHT22;1796;52.388;13.096;2023-06-14T12:01:00;23.20;94.40
3564;DHT22;1796;52.388;13.096;2023-06-14T12:03:28;23.00;93.90
3564;DHT22;1796;52.388;13.096;2023-06-14T12:06:05;23.20;93.90
3564;DHT22;1796;52.388;13.096;2023-06-14T12:08:36;23.70;93.80
3564;DHT22;1796;52.388;13.096;2023-06-14T12:11:05;24.10;93.20
3564;DHT22;1796;52.388;13.096;2023-06-14T12:13:34;24.30;93.10
3564;DHT22;1796;52.388;13.096;2023-06-14T12:16:01;24.00;92.70
3564;DHT22;1796;52.388;13.096;2023-06-14T12:18:33;24.10;92.70
3564;DHT22;1796;52.388;13.096;2023-06-14T12:21:00;24.50;92.00
3564;DHT22;1796;52.388;13.096;2023-06-14T12:23:42;24.10;91.80
3564;DHT22;1796;52.388;13.096;2023-06-14T12:26:09;24.60;91.80
3564;DHT22;1796;52.388;13.096;2023-06-14T12:28:36;24.40;90.60
3564;DHT22;1796;52.388;13.096;2023-06-14T12:31:03;24.10;90.90
3564;DHT22;1796;52.388;13.096;2023-06-14T12:33:30;24.20;90.90
3564;DHT22;1796;52.388;13.096;2023-06-14T12:35:57;24.20;91.10
3564;DHT22;1796;52.388;13.096;2023-06-14T12:38:24;24.00;90.00
3564;DHT22;1796;52.388;13.096;2023-06-14T12:40:52;24.30;90.30
3564;DHT22;1796;52.388;13.096;2023-06-14T12:43:19;23.80;90.60
3564;DHT22;1796;52.388;13.096;2023-06-14T12:45:46;24.10;90.70
3564;DHT22;1796;52.388;13.096;2023-06-14T12:48:13;24.10;90.20
3564;DHT22;1796;52.388;13.096;2023-06-14T12:50:40;23.80;89.70
3564;DHT22;1796;52.388;13.096;2023-06-14T12:53:07;23.70;90.50
3564;DHT22;1796;52.388;13.096;2023-06-14T12:55:34;23.60;90.60
3564;DHT22;1796;52.388;13.096;2023-06-14T12:58:02;23.50;90.60
3564;DHT22;1796;52.388;13.096;2023-06-14T13:00:30;24.00;90.50
3564;DHT22;1796;52.388;13.096;2023-06-14T13:02:57;23.20;90.60
3564;DHT22;1796;52.388;13.096;2023-06-14T13:05:24;23.30;90.10
3564;DHT22;1796;52.388;13.096;2023-06-14T13:07:50;23.40;88.60
3564;DHT22;1796;52.388;13.096;2023-06-14T13:10:17;23.30;87.90
3564;DHT22;1796;52.388;13.096;2023-06-14T13:12:44;23.50;89.90
3564;DHT22;1796;52.388;13.096;2023-06-14T13:15:13;23.50;88.20
3564;DHT22;1796;52.388;13.096;2023-06-14T13:17:40;23.20;88.30
3564;DHT22;1796;52.388;13.096;2023-06-14T13:20:10;23.50;88.70
3564;DHT22;1796;52.388;13.096;2023-06-14T13:22:37;23.90;87.40
3564;DHT22;1796;52.388;13.096;2023-06-14T13:25:06;24.20;87.50
3564;DHT22;1796;52.388;13.096;2023-06-14T13:27:33;24.20;86.60
3564;DHT22;1796;52.388;13.096;2023-06-14T13:30:00;24.40;86.10
3564;DHT22;1796;52.388;13.096;2023-06-14T13:32:28;24.30;86.50
3564;DHT22;1796;52.388;13.096;2023-06-14T13:34:55;24.00;86.40
3564;DHT22;1796;52.388;13.096;2023-06-14T13:37:22;23.70;87.20
3564;DHT22;1796;52.388;13.096;2023-06-14T13:39:49;24.00;87.00
3564;DHT22;1796;52.388;13.096;2023-06-14T13:42:16;24.10;85.70
3564;DHT22;1796;52.388;13.096;2023-06-14T13:44:43;24.30;84.50
3564;DHT22;1796;52.388;13.096;2023-06-14T13:47:10;24.80;85.20
3564;DHT22;1796;52.388;13.096;2023-06-14T13:49:39;25.00;83.90
3564;DHT22;1796;52.388;13.096;2023-06-14T13:52:06;24.70;83.90
3564;DHT22;1796;52.388;13.096;2023-06-14T13:54:33;24.60;83.10
3564;DHT22;1796;52.388;13.096;2023-06-14T13:57:01;24.80;82.10
3564;DHT22;1796;52.388;13.096;2023-06-14T13:59:28;24.50;81.10
3564;DHT22;1796;52.388;13.096;2023-06-14T14:01:55;24.80;80.00
3564;DHT22;1796;52.388;13.096;2023-06-14T14:04:22;25.20;80.10
3564;DHT22;1796;52.388;13.096;2023-06-14T14:06:50;25.40;80.10
3564;DHT22;1796;52.388;13.096;2023-06-14T14:09:17;24.90;81.60
3564;DHT22;1796;52.388;13.096;2023-06-14T14:11:44;24.50;81.00
3564;DHT22;1796;52.388;13.096;2023-06-14T14:14:11;24.60;80.60
3564;DHT22;1796;52.388;13.096;2023-06-14T14:16:38;24.70;80.40
3564;DHT22;1796;52.388;13.096;2023-06-14T14:19:05;24.60;78.50
3564;DHT22;1796;52.388;13.096;2023-06-14T14:21:32;24.20;77.30
3564;DHT22;1796;52.388;13.096;2023-06-14T14:24:00;24.40;77.70
3564;DHT22;1796;52.388;13.096;2023-06-14T14:26:27;24.20;77.00
3564;DHT22;1796;52.388;13.096;2023-06-14T14:28:54;24.80;77.60
3564;DHT22;1796;52.388;13.096;2023-06-14T14:31:21;24.60;76.10
3564;DHT22;1796;52.388;13.096;2023-06-14T14:33:48;24.70;76.10
3564;DHT22;1796;52.388;13.096;2023-06-14T14:36:15;24.80;76.10
3564;DHT22;1796;52.388;13.096;2023-06-14T14:38:42;25.00;76.00
3564;DHT22;1796;52.388;13.096;2023-06-14T14:41:10;25.40;75.60
3564;DHT22;1796;52.388;13.096;2023-06-14T14:43:37;25.10;76.40
3564;DHT22;1796;52.388;13.096;2023-06-14T14:46:04;24.80;75.50
3564;DHT22;1796;52.388;13.096;2023-06-14T14:48:31;25.00;74.60
3564;DHT22;1796;52.388;13.096;2023-06-14T14:50:58;24.80;76.80
3564;DHT22;1796;52.388;13.096;2023-06-14T14:53:24;25.00;77.60
3564;DHT22;1796;52.388;13.096;2023-06-14T14:55:51;24.80;76.50
3564;DHT22;1796;52.388;13.096;2023-06-14T14:58:20;24.90;76.30
3564;DHT22;1796;52.388;13.096;2023-06-14T15:00:47;24.70;75.70
3564;DHT22;1796;52.388;13.096;2023-06-14T15:03:14;24.40;75.90
3564;DHT22;1796;52.388;13.096;2023-06-14T15:05:41;24.40;77.00
3564;DHT22;1796;52.388;13.096;2023-06-14T15:08:08;24.10;77.70
3564;DHT22;1796;52.388;13.096;2023-06-14T15:10:37;23.60;78.50
3564;DHT22;1796;52.388;13.096;2023-06-14T15:13:06;23.20;79.30
3564;DHT22;1796;52.388;13.096;2023-06-14T15:15:35;23.20;79.70
3564;DHT22;1796;52.388;13.096;2023-06-14T15:18:02;22.90;80.20
3564;DHT22;1796;52.388;13.096;2023-06-14T15:20:29;22.70;80.70
3564;DHT22;1796;52.388;13.096;2023-06-14T15:22:57;22.70;81.40
3564;DHT22;1796;52.388;13.096;2023-06-14T15:25:25;22.70;82.00
3564;DHT22;1796;52.388;13.096;2023-06-14T15:27:52;22.60;82.10
3564;DHT22;1796;52.388;13.096;2023-06-14T15:30:19;22.60;82.50
3564;DHT22;1796;52.388;13.096;2023-06-14T15:32:47;22.50;82.40
3564;DHT22;1796;52.388;13.096;2023-06-14T15:35:16;22.50;82.60
3564;DHT22;1796;52.388;13.096;2023-06-14T15:37:43;22.60;82.60
3564;DHT22;1796;52.388;13.096;2023-06-14T15:40:10;22.60;82.10
3564;DHT22;1796;52.388;13.096;2023-06-14T15:42:37;22.50;81.80
3564;DHT22;1796;52.388;13.096;2023-06-14T15:45:05;22.40;81.70
3564;DHT22;1796;52.388;13.096;2023-06-14T15:47:32;22.30;82.00
3564;DHT22;1796;52.388;13.096;2023-06-14T15:50:00;22.30;82.20
3564;DHT22;1796;52.388;13.096;2023-06-14T15:52:27;22.20;82.40
3564;DHT22;1796;52.388;13.096;2023-06-14T15:54:53;22.30;82.30